createdAt,value
2017-09-19T00:01:11.650Z,10.30
2017-09-19T00:03:39.985Z,10.30
2017-09-19T00:06:08.297Z,10.40
2017-09-19T00:08:36.663Z,10.50
2017-09-19T00:11:05.017Z,10.40
2017-09-19T00:13:33.345Z,10.40
2017-09-19T00:16:01.683Z,10.40
2017-09-19T00:18:30.008Z,10.50
2017-09-19T00:20:58.334Z,10.50
2017-09-19T00:23:26.664Z,10.40
2017-09-19T00:25:54.999Z,10.40
2017-09-19T00:28:23.356Z,10.30
2017-09-19T00:30:51.665Z,10.30
2017-09-19T00:33:20.774Z,10.10
2017-09-19T00:35:49.088Z,10.10
2017-09-19T00:38:17.417Z,10.20
2017-09-19T00:40:45.742Z,10.30
2017-09-19T00:43:14.074Z,10.30
2017-09-19T00:45:43.136Z,10.20
2017-09-19T00:48:11.501Z,10.20
2017-09-19T00:50:39.798Z,10.40
2017-09-19T00:53:08.140Z,10.50
2017-09-19T00:55:36.576Z,10.40
2017-09-19T00:58:04.946Z,10.40
2017-09-19T01:00:34.045Z,10.40
2017-09-19T01:03:02.409Z,10.30
2017-09-19T01:05:30.751Z,10.20
2017-09-19T01:07:59.071Z,10.20
2017-09-19T01:10:27.409Z,10.30
2017-09-19T01:12:55.738Z,10.30
2017-09-19T01:15:24.086Z,10.30
2017-09-19T01:17:52.395Z,10.40
2017-09-19T01:20:20.737Z,10.40
2017-09-19T01:22:49.061Z,10.40
2017-09-19T01:25:18.180Z,10.40
2017-09-19T01:27:47.261Z,10.40
2017-09-19T01:30:16.381Z,10.50
2017-09-19T01:32:44.714Z,10.50
2017-09-19T01:35:13.067Z,10.50
2017-09-19T01:37:41.377Z,10.50
2017-09-19T01:40:18.621Z,10.50
2017-09-19T01:42:46.921Z,10.40
2017-09-19T01:45:15.248Z,10.50
2017-09-19T01:47:43.577Z,10.50
2017-09-19T01:50:11.925Z,10.40
2017-09-19T01:52:40.243Z,10.30
2017-09-19T01:55:08.590Z,10.30
2017-09-19T01:57:36.900Z,10.30
2017-09-19T02:00:05.218Z,10.30
2017-09-19T02:02:33.590Z,10.40
2017-09-19T02:05:02.748Z,10.50
2017-09-19T02:07:31.886Z,10.40
2017-09-19T02:10:00.317Z,10.40
2017-09-19T02:12:28.668Z,10.20
2017-09-19T02:14:56.989Z,10.20
2017-09-19T02:17:25.446Z,10.30
2017-09-19T02:19:53.907Z,10.30
2017-09-19T02:22:22.273Z,10.30
2017-09-19T02:24:50.603Z,10.30
2017-09-19T02:27:24.778Z,10.10
2017-09-19T02:29:53.098Z,9.50
2017-09-19T02:32:21.439Z,9.50
2017-09-19T02:34:49.765Z,9.60
2017-09-19T02:37:18.095Z,9.40
2017-09-19T02:39:46.419Z,9.50
2017-09-19T02:42:14.758Z,9.70
2017-09-19T02:44:43.102Z,9.80
2017-09-19T02:47:11.451Z,9.90
2017-09-19T02:49:39.766Z,10.00
2017-09-19T02:52:08.882Z,10.10
2017-09-19T02:54:37.213Z,10.10
2017-09-19T02:57:05.539Z,10.20
2017-09-19T02:59:33.892Z,10.30
2017-09-19T03:02:02.205Z,10.30
2017-09-19T03:04:31.405Z,10.30
2017-09-19T03:06:59.734Z,10.30
2017-09-19T03:09:28.077Z,10.30
2017-09-19T03:11:56.399Z,10.20
2017-09-19T03:14:38.145Z,10.10
2017-09-19T03:17:06.462Z,10.10
2017-09-19T03:19:34.807Z,10.30
2017-09-19T03:22:03.127Z,10.30
2017-09-19T03:24:50.912Z,10.30
2017-09-19T03:27:19.234Z,10.20
2017-09-19T03:29:47.577Z,10.30
2017-09-19T03:32:15.891Z,10.20
2017-09-19T03:34:44.225Z,10.20
2017-09-19T03:37:12.542Z,10.10
2017-09-19T03:39:40.892Z,10.10
2017-09-19T03:42:09.210Z,10.20
2017-09-19T03:44:37.578Z,10.20
2017-09-19T03:47:05.894Z,10.30
2017-09-19T03:49:34.994Z,10.10
2017-09-19T03:52:04.080Z,10.00
2017-09-19T03:54:33.178Z,9.80
2017-09-19T03:57:02.274Z,9.80
2017-09-19T03:59:31.409Z,9.80
2017-09-19T04:01:59.710Z,9.80
2017-09-19T04:04:28.005Z,9.90
2017-09-19T04:06:56.334Z,9.80
2017-09-19T04:09:24.658Z,9.90
2017-09-19T04:11:53.003Z,10.00
2017-09-19T04:14:21.327Z,10.00
2017-09-19T04:16:49.662Z,10.00
2017-09-19T04:19:18.000Z,10.00
2017-09-19T04:21:46.350Z,9.90
2017-09-19T04:24:14.675Z,10.00
2017-09-19T04:26:43.011Z,10.00
2017-09-19T04:29:11.330Z,10.00
2017-09-19T04:31:39.673Z,9.90
2017-09-19T04:34:07.982Z,9.90
2017-09-19T04:36:37.083Z,9.70
2017-09-19T04:39:05.402Z,9.70
2017-09-19T04:41:33.731Z,9.60
2017-09-19T04:44:02.811Z,9.00
2017-09-19T04:46:31.159Z,8.90
2017-09-19T04:48:59.514Z,9.10
2017-09-19T04:51:27.817Z,9.20
2017-09-19T04:53:56.146Z,9.30
2017-09-19T04:56:25.228Z,9.40
2017-09-19T04:58:54.341Z,9.30
2017-09-19T05:01:22.705Z,9.30
2017-09-19T05:03:51.804Z,9.20
2017-09-19T05:06:20.885Z,9.10
2017-09-19T05:08:49.213Z,9.10
2017-09-19T05:11:17.530Z,9.20
2017-09-19T05:13:45.877Z,9.10
2017-09-19T05:16:14.207Z,9.20
2017-09-19T05:18:42.571Z,9.20
2017-09-19T05:21:10.887Z,9.20
2017-09-19T05:23:39.226Z,9.30
2017-09-19T05:26:07.550Z,9.20
2017-09-19T05:28:35.910Z,9.20
2017-09-19T05:31:04.242Z,9.20
2017-09-19T05:33:32.593Z,9.20
2017-09-19T05:36:00.913Z,9.20
2017-09-19T05:38:29.230Z,9.20
2017-09-19T05:40:57.602Z,9.20
2017-09-19T05:43:25.948Z,9.20
2017-09-19T05:45:54.298Z,9.20
2017-09-19T05:48:22.634Z,9.10
2017-09-19T05:50:51.733Z,8.60
2017-09-19T05:53:20.806Z,8.70
2017-09-19T05:55:49.156Z,8.80
2017-09-19T05:58:17.463Z,8.90
2017-09-19T06:00:45.826Z,9.00
2017-09-19T06:03:14.151Z,8.80
2017-09-19T06:05:43.224Z,8.90
2017-09-19T06:08:11.560Z,8.90
2017-09-19T06:10:39.874Z,8.30
2017-09-19T06:13:08.213Z,8.10
2017-09-19T06:15:36.523Z,8.40
2017-09-19T06:18:04.881Z,8.70
2017-09-19T06:20:33.191Z,8.80
2017-09-19T06:23:01.544Z,9.10
2017-09-19T06:25:29.880Z,9.10
2017-09-19T06:27:58.248Z,9.10
2017-09-19T06:30:27.332Z,8.90
2017-09-19T06:32:56.444Z,8.90
2017-09-19T06:35:25.536Z,8.90
2017-09-19T06:37:54.658Z,9.10
2017-09-19T06:40:22.987Z,9.00
2017-09-19T06:42:51.316Z,9.10
2017-09-19T06:45:19.661Z,8.90
2017-09-19T06:50:21.522Z,8.80
2017-09-19T06:52:49.830Z,8.90
2017-09-19T06:55:18.928Z,8.90
2017-09-19T06:57:48.002Z,9.10
2017-09-19T07:00:16.347Z,9.10
2017-09-19T07:02:44.679Z,9.20
2017-09-19T07:05:13.799Z,9.30
2017-09-19T07:07:42.121Z,9.30
2017-09-19T07:10:10.467Z,9.30
2017-09-19T07:12:38.800Z,9.40
2017-09-19T07:15:07.921Z,9.50
2017-09-19T07:17:36.251Z,9.60
2017-09-19T07:20:04.624Z,9.70
2017-09-19T07:22:32.945Z,9.70
2017-09-19T07:25:02.971Z,9.70
2017-09-19T07:27:32.054Z,9.70
2017-09-19T07:30:00.411Z,9.70
2017-09-19T07:32:28.718Z,9.70
2017-09-19T07:34:57.037Z,9.70
2017-09-19T07:37:25.378Z,9.80
2017-09-19T07:39:54.456Z,9.90
2017-09-19T07:42:22.793Z,9.80
2017-09-19T07:44:51.092Z,10.00
2017-09-19T07:47:19.443Z,10.10
2017-09-19T07:49:47.774Z,10.40
2017-09-19T07:52:16.886Z,10.90
2017-09-19T07:54:45.966Z,10.90
2017-09-19T07:57:14.318Z,10.90
2017-09-19T07:59:42.639Z,11.00
2017-09-19T08:02:11.754Z,10.90
2017-09-19T08:04:40.067Z,10.90
2017-09-19T08:07:08.439Z,11.10
2017-09-19T08:09:36.761Z,11.20
2017-09-19T08:12:05.104Z,11.10
2017-09-19T08:14:33.426Z,11.10
2017-09-19T08:17:02.534Z,11.30
2017-09-19T08:19:31.629Z,11.40
2017-09-19T08:22:00.743Z,11.50
2017-09-19T08:24:29.054Z,11.40
2017-09-19T08:26:57.382Z,11.50
2017-09-19T08:29:26.488Z,11.70
2017-09-19T08:31:54.810Z,11.70
2017-09-19T08:34:23.154Z,11.90
2017-09-19T08:36:51.480Z,12.00
2017-09-19T08:39:19.823Z,12.10
2017-09-19T08:41:48.138Z,12.20
2017-09-19T08:44:16.483Z,12.30
2017-09-19T08:46:44.798Z,12.30
2017-09-19T08:49:13.156Z,12.30
2017-09-19T08:51:41.488Z,12.40
2017-09-19T08:54:10.569Z,12.40
2017-09-19T08:56:39.672Z,12.40
2017-09-19T08:59:08.751Z,12.50
2017-09-19T09:01:37.077Z,12.50
2017-09-19T09:04:05.403Z,12.60
2017-09-19T09:06:33.743Z,12.70
2017-09-19T09:09:02.065Z,12.80
2017-09-19T09:11:31.203Z,12.80
2017-09-19T09:13:59.528Z,12.80
2017-09-19T09:16:34.415Z,12.90
2017-09-19T09:19:02.735Z,12.90
2017-09-19T09:21:31.086Z,13.00
2017-09-19T09:23:59.407Z,13.10
2017-09-19T09:26:27.773Z,13.00
2017-09-19T09:28:56.148Z,13.00
2017-09-19T09:31:24.476Z,13.10
2017-09-19T09:33:53.574Z,13.20
2017-09-19T09:36:22.651Z,13.20
2017-09-19T09:38:50.983Z,13.20
2017-09-19T09:41:19.294Z,13.40
2017-09-19T09:43:47.648Z,13.40
2017-09-19T09:46:15.962Z,13.50
2017-09-19T09:48:44.303Z,13.60
2017-09-19T09:51:12.619Z,13.60
2017-09-19T09:53:40.969Z,13.80
2017-09-19T09:56:09.294Z,13.90
2017-09-19T09:58:38.390Z,13.90
2017-09-19T10:01:06.732Z,13.90
2017-09-19T10:03:35.062Z,14.00
2017-09-19T10:06:03.384Z,13.90
2017-09-19T10:08:31.733Z,13.90
2017-09-19T10:11:00.086Z,14.00
2017-09-19T10:13:29.177Z,13.90
2017-09-19T10:15:58.263Z,14.00
2017-09-19T10:18:27.385Z,14.00
2017-09-19T10:20:55.759Z,14.00
2017-09-19T10:23:24.875Z,14.10
2017-09-19T10:25:53.210Z,14.10
2017-09-19T10:28:22.337Z,14.20
2017-09-19T10:30:50.669Z,14.20
2017-09-19T10:33:19.042Z,14.30
2017-09-19T10:35:47.395Z,14.40
2017-09-19T10:38:15.703Z,14.50
2017-09-19T10:40:44.057Z,14.50
2017-09-19T10:43:12.383Z,14.40
2017-09-19T10:45:41.513Z,14.50
2017-09-19T10:48:09.826Z,14.40
2017-09-19T10:50:38.189Z,14.70
2017-09-19T10:53:06.490Z,15.00
2017-09-19T10:55:34.821Z,15.10
2017-09-19T10:58:03.144Z,15.20
2017-09-19T11:00:31.488Z,15.30
2017-09-19T11:02:59.822Z,15.30
2017-09-19T11:05:28.202Z,15.20
2017-09-19T11:07:56.511Z,15.10
2017-09-19T11:10:24.846Z,15.10
2017-09-19T11:12:53.156Z,15.20
2017-09-19T11:15:22.262Z,15.30
2017-09-19T11:17:51.346Z,15.50
2017-09-19T11:20:20.438Z,15.50
2017-09-19T11:22:48.750Z,15.50
2017-09-19T11:25:17.105Z,15.60
2017-09-19T11:27:46.179Z,15.70
2017-09-19T11:30:15.302Z,15.90
2017-09-19T11:32:44.381Z,15.90
2017-09-19T11:35:13.481Z,16.00
2017-09-19T11:37:41.819Z,15.90
2017-09-19T11:40:10.170Z,16.10
2017-09-19T11:42:38.498Z,16.20
2017-09-19T11:45:06.819Z,16.20
2017-09-19T11:47:35.156Z,16.10
2017-09-19T11:50:03.458Z,16.20
2017-09-19T11:52:31.786Z,16.10
2017-09-19T11:55:00.094Z,16.10
2017-09-19T11:57:28.431Z,16.30
2017-09-19T11:59:56.747Z,16.30
2017-09-19T12:02:25.095Z,16.40
2017-09-19T12:04:53.433Z,16.30
2017-09-19T12:07:22.535Z,16.40
2017-09-19T12:09:51.806Z,16.30
2017-09-19T12:12:20.142Z,16.10
2017-09-19T12:14:48.459Z,15.90
2017-09-19T12:17:16.791Z,16.00
2017-09-19T12:19:45.108Z,16.10
2017-09-19T12:22:13.446Z,16.10
2017-09-19T12:24:41.769Z,16.30
2017-09-19T12:27:10.095Z,16.40
2017-09-19T12:29:38.411Z,16.40
2017-09-19T12:32:06.747Z,16.40
2017-09-19T12:34:35.817Z,16.50
2017-09-19T12:37:04.146Z,16.50
2017-09-19T12:39:32.446Z,16.40
2017-09-19T12:42:00.782Z,16.40
2017-09-19T12:44:29.109Z,16.60
2017-09-19T12:46:57.445Z,16.60
2017-09-19T12:49:25.754Z,16.60
2017-09-19T12:51:54.086Z,16.70
2017-09-19T12:54:23.150Z,16.70
2017-09-19T12:56:51.483Z,16.70
2017-09-19T12:59:19.808Z,16.70
2017-09-19T13:01:48.152Z,16.60
2017-09-19T13:04:22.868Z,16.50
2017-09-19T13:06:51.206Z,16.50
2017-09-19T13:09:19.522Z,16.40
2017-09-19T13:11:47.859Z,16.40
2017-09-19T13:14:16.168Z,16.50
2017-09-19T13:16:44.509Z,16.60
2017-09-19T13:19:12.811Z,16.70
2017-09-19T13:21:41.904Z,17.00
2017-09-19T13:24:10.974Z,16.90
2017-09-19T13:26:39.330Z,16.90
2017-09-19T13:29:07.639Z,16.90
2017-09-19T13:31:47.948Z,17.00
2017-09-19T13:34:16.255Z,17.00
2017-09-19T13:36:44.564Z,17.20
2017-09-19T13:39:12.894Z,17.20
2017-09-19T13:41:41.207Z,17.10
2017-09-19T13:44:09.562Z,17.30
2017-09-19T13:46:37.872Z,17.40
2017-09-19T13:49:06.208Z,17.40
2017-09-19T13:51:34.523Z,17.50
2017-09-19T13:54:02.844Z,17.30
2017-09-19T13:56:31.150Z,17.40
2017-09-19T13:58:59.510Z,17.10
2017-09-19T14:04:25.525Z,16.70
2017-09-19T14:06:54.632Z,16.50
2017-09-19T14:09:23.879Z,16.50
2017-09-19T14:11:52.203Z,16.80
2017-09-19T14:14:20.560Z,16.80
2017-09-19T14:16:48.917Z,16.90
2017-09-19T14:19:17.274Z,17.00
2017-09-19T14:21:45.617Z,16.80
2017-09-19T14:24:14.749Z,16.90
2017-09-19T14:26:43.080Z,16.90
2017-09-19T14:29:12.181Z,17.10
2017-09-19T14:31:41.308Z,17.10
2017-09-19T14:34:10.565Z,17.10
2017-09-19T14:36:39.078Z,17.10
2017-09-19T14:39:07.513Z,17.20
2017-09-19T14:41:36.729Z,17.00
2017-09-19T14:44:05.183Z,17.00
2017-09-19T14:46:33.661Z,16.90
2017-09-19T14:49:02.082Z,17.00
2017-09-19T14:51:30.541Z,16.80
2017-09-19T14:53:59.724Z,16.70
2017-09-19T14:56:28.155Z,16.70
2017-09-19T14:58:56.567Z,17.00
2017-09-19T15:01:24.972Z,17.00
2017-09-19T15:03:53.294Z,17.10
2017-09-19T15:06:21.647Z,16.90
2017-09-19T15:08:49.974Z,16.90
2017-09-19T15:11:18.333Z,16.80
2017-09-19T15:13:46.713Z,16.90
2017-09-19T15:16:15.061Z,17.00
2017-09-19T15:18:43.382Z,17.00
2017-09-19T15:21:11.726Z,17.10
2017-09-19T15:23:40.059Z,17.00
2017-09-19T15:26:09.168Z,16.90
2017-09-19T15:28:37.498Z,16.90
2017-09-19T15:31:06.616Z,16.90
2017-09-19T15:33:34.940Z,16.90
2017-09-19T15:36:03.263Z,16.90
2017-09-19T15:38:31.608Z,16.90
2017-09-19T15:40:59.937Z,16.80
2017-09-19T15:43:28.287Z,16.70
2017-09-19T15:45:57.363Z,16.70
2017-09-19T15:48:25.719Z,16.70
2017-09-19T15:50:54.034Z,16.70
2017-09-19T15:53:23.146Z,16.50
2017-09-19T15:55:51.461Z,16.50
2017-09-19T15:58:19.803Z,16.50
2017-09-19T16:00:48.143Z,16.50
2017-09-19T16:03:16.488Z,16.60
2017-09-19T16:05:44.809Z,16.60
2017-09-19T16:08:13.161Z,16.50
2017-09-19T16:10:41.498Z,16.50
2017-09-19T16:13:09.839Z,16.50
2017-09-19T16:15:38.152Z,16.60
2017-09-19T16:18:06.505Z,16.60
2017-09-19T16:20:34.825Z,16.70
2017-09-19T16:23:03.175Z,16.50
2017-09-19T16:25:32.263Z,16.10
2017-09-19T16:28:02.130Z,16.10
2017-09-19T16:30:30.437Z,16.10
2017-09-19T16:32:58.791Z,16.10
2017-09-19T16:35:27.110Z,16.10
2017-09-19T16:37:55.456Z,16.20
2017-09-19T16:40:23.791Z,16.20
2017-09-19T16:42:52.915Z,16.10
2017-09-19T16:45:21.241Z,16.10
2017-09-19T16:47:49.556Z,16.10
2017-09-19T16:50:17.907Z,16.00
2017-09-19T16:52:47.003Z,16.00
2017-09-19T16:55:16.123Z,16.00
2017-09-19T16:57:44.464Z,16.00
2017-09-19T17:00:12.812Z,15.90
2017-09-19T17:02:41.168Z,15.90
2017-09-19T17:05:09.519Z,15.80
2017-09-19T17:07:37.885Z,15.80
2017-09-19T17:10:06.220Z,16.00
2017-09-19T17:12:34.531Z,16.00
2017-09-19T17:15:02.883Z,15.90
2017-09-19T17:17:31.233Z,15.80
2017-09-19T17:19:59.582Z,15.80
2017-09-19T17:22:27.911Z,15.80
2017-09-19T17:24:59.835Z,15.80
2017-09-19T17:27:28.919Z,15.80
2017-09-19T17:29:57.268Z,15.80
2017-09-19T17:32:25.596Z,15.80
2017-09-19T17:34:54.709Z,15.60
2017-09-19T17:37:23.017Z,15.50
2017-09-19T17:39:51.365Z,15.50
2017-09-19T17:42:19.700Z,15.40
2017-09-19T17:44:48.053Z,15.50
2017-09-19T17:47:16.376Z,15.30
2017-09-19T17:49:44.750Z,15.30
2017-09-19T17:52:13.077Z,15.30
2017-09-19T17:54:41.392Z,15.20
2017-09-19T17:57:09.749Z,15.00
2017-09-19T17:59:38.078Z,15.00
2017-09-19T18:02:07.193Z,15.00
2017-09-19T18:04:35.523Z,15.00
2017-09-19T18:07:03.884Z,15.00
2017-09-19T18:09:32.216Z,15.00
2017-09-19T18:12:01.345Z,15.00
2017-09-19T18:14:29.678Z,15.00
2017-09-19T18:16:58.026Z,15.00
2017-09-19T18:19:26.365Z,15.00
2017-09-19T18:21:54.713Z,14.80
2017-09-19T18:24:23.038Z,14.70
2017-09-19T18:26:51.406Z,14.60
2017-09-19T18:29:19.747Z,14.60
2017-09-19T18:31:48.891Z,14.30
2017-09-19T18:34:17.242Z,14.30
2017-09-19T18:36:45.595Z,14.30
2017-09-19T18:39:13.908Z,14.30
2017-09-19T18:41:43.032Z,14.20
2017-09-19T18:44:11.353Z,14.10
2017-09-19T18:46:39.700Z,14.20
2017-09-19T18:49:08.026Z,14.10
2017-09-19T18:51:37.130Z,14.00
2017-09-19T18:54:06.222Z,14.00
2017-09-19T18:56:35.334Z,13.90
2017-09-19T18:59:03.666Z,13.80
2017-09-19T19:01:32.030Z,13.80
2017-09-19T19:04:00.356Z,13.80
2017-09-19T19:06:29.446Z,13.70
2017-09-19T19:08:58.563Z,13.70
2017-09-19T19:11:27.647Z,13.80
2017-09-19T19:13:56.769Z,13.70
2017-09-19T19:16:25.098Z,13.70
2017-09-19T19:18:53.440Z,13.60
2017-09-19T19:21:21.758Z,13.60
2017-09-19T19:23:50.110Z,13.50
2017-09-19T19:26:18.438Z,13.60
2017-09-19T19:28:47.546Z,13.60
2017-09-19T19:31:15.869Z,13.60
2017-09-19T19:33:44.219Z,13.40
2017-09-19T19:36:12.568Z,13.50
2017-09-19T19:38:41.678Z,13.50
2017-09-19T19:41:10.042Z,13.50
2017-09-19T19:43:39.138Z,13.50
2017-09-19T19:46:08.237Z,13.50
2017-09-19T19:48:37.416Z,13.30
2017-09-19T19:51:05.730Z,13.30
2017-09-19T19:53:34.099Z,13.20
2017-09-19T19:56:03.181Z,13.30
2017-09-19T19:58:31.523Z,13.30
2017-09-19T20:00:59.856Z,13.20
2017-09-19T20:03:28.199Z,13.20
2017-09-19T20:05:56.528Z,13.30
2017-09-19T20:08:24.880Z,13.10
2017-09-19T20:10:53.964Z,13.00
2017-09-19T20:13:22.303Z,13.00
2017-09-19T20:15:51.454Z,13.10
2017-09-19T20:18:20.558Z,13.00
2017-09-19T20:20:49.660Z,13.00
2017-09-19T20:23:18.765Z,12.90
2017-09-19T20:25:47.082Z,12.90
2017-09-19T20:28:15.443Z,13.00
2017-09-19T20:30:43.771Z,12.90
2017-09-19T20:33:12.105Z,12.80
2017-09-19T20:35:40.418Z,12.90
2017-09-19T20:38:08.763Z,13.00
2017-09-19T20:40:37.086Z,13.00
2017-09-19T20:43:06.188Z,13.00
2017-09-19T20:45:35.265Z,12.90
2017-09-19T20:48:03.601Z,12.90
2017-09-19T20:50:31.921Z,12.90
2017-09-19T20:53:00.258Z,12.90
2017-09-19T20:55:28.570Z,13.00
2017-09-19T20:57:56.899Z,12.90
2017-09-19T21:00:25.228Z,12.90
2017-09-19T21:02:53.055Z,12.90
2017-09-19T21:05:27.144Z,12.80
2017-09-19T21:08:01.989Z,12.90
2017-09-19T21:10:35.889Z,12.80
2017-09-19T21:13:10.710Z,12.80
2017-09-19T21:15:45.554Z,12.60
2017-09-19T21:18:20.363Z,12.60
2017-09-19T21:20:48.674Z,12.60
2017-09-19T21:23:16.998Z,12.60
2017-09-19T21:25:45.328Z,12.50
2017-09-19T21:28:13.655Z,12.50
2017-09-19T21:30:41.999Z,12.40
2017-09-19T21:33:10.313Z,12.50
2017-09-19T21:35:38.651Z,12.40
2017-09-19T21:38:06.975Z,12.40
2017-09-19T21:40:35.300Z,12.40
2017-09-19T21:43:03.620Z,12.50
2017-09-19T21:45:31.953Z,12.60
2017-09-19T21:48:00.323Z,12.50
2017-09-19T21:50:28.685Z,12.50
2017-09-19T21:52:56.998Z,12.50
2017-09-19T21:55:25.370Z,12.50
2017-09-19T21:57:53.683Z,12.50
2017-09-19T22:00:22.023Z,12.50
2017-09-19T22:02:51.110Z,12.40
2017-09-19T22:05:20.213Z,12.50
2017-09-19T22:07:49.289Z,12.40
2017-09-19T22:10:17.621Z,12.40
2017-09-19T22:12:45.959Z,12.40
2017-09-19T22:15:15.057Z,12.40
2017-09-19T22:17:44.143Z,12.50
2017-09-19T22:20:12.495Z,12.50
2017-09-19T22:22:40.843Z,12.40
2017-09-19T22:25:09.182Z,12.30
2017-09-19T22:27:37.513Z,12.40
2017-09-19T22:30:05.853Z,12.30
2017-09-19T22:32:34.178Z,12.30
2017-09-19T22:35:02.518Z,12.40
2017-09-19T22:37:30.830Z,12.20
2017-09-19T22:39:59.164Z,12.20
2017-09-19T22:42:28.256Z,12.20
2017-09-19T22:44:56.587Z,12.20
2017-09-19T22:47:24.904Z,12.00
2017-09-19T22:49:53.247Z,12.00
2017-09-19T22:52:21.570Z,12.00
2017-09-19T22:54:50.679Z,12.00
2017-09-19T22:57:19.002Z,11.90
2017-09-19T22:59:49.369Z,11.90
2017-09-19T23:02:18.452Z,11.80
2017-09-19T23:04:46.792Z,11.80
2017-09-19T23:07:15.896Z,12.00
2017-09-19T23:09:44.302Z,12.00
2017-09-19T23:12:13.411Z,12.00
2017-09-19T23:14:41.759Z,12.00
2017-09-19T23:17:10.102Z,12.00
2017-09-19T23:19:38.459Z,11.90
2017-09-19T23:22:07.571Z,11.80
2017-09-19T23:24:35.935Z,11.80
2017-09-19T23:27:05.020Z,11.80
2017-09-19T23:29:33.355Z,11.80
2017-09-19T23:32:01.672Z,11.80
2017-09-19T23:34:30.028Z,11.70
2017-09-19T23:36:58.351Z,11.80
2017-09-19T23:39:27.437Z,11.80
2017-09-19T23:41:56.516Z,11.70
2017-09-19T23:44:24.852Z,11.70
2017-09-19T23:46:53.215Z,11.80
2017-09-19T23:49:21.561Z,11.90
2017-09-19T23:51:49.888Z,11.90
2017-09-19T23:54:18.251Z,11.80
2017-09-19T23:56:46.573Z,11.70
2017-09-19T23:59:14.914Z,11.60
